createdAt,value
2023-03-02T00:01:51.228Z,5.36
2023-03-02T00:04:37.323Z,5.31
2023-03-02T00:07:12.123Z,5.26
2023-03-02T00:09:39.773Z,5.23
2023-03-02T00:12:07.961Z,5.22
2023-03-02T00:14:34.849Z,5.17
2023-03-02T00:17:02.884Z,5.15
2023-03-02T00:19:29.875Z,5.12
2023-03-02T00:21:56.687Z,5.10
2023-03-02T00:24:23.491Z,5.04
2023-03-02T00:26:50.322Z,5.00
2023-03-02T00:29:17.059Z,4.95
2023-03-02T00:31:43.865Z,4.92
2023-03-02T00:34:10.792Z,4.86
2023-03-02T00:36:37.924Z,4.83
2023-03-02T00:39:04.790Z,4.80
2023-03-02T00:41:31.639Z,4.76
2023-03-02T00:43:58.360Z,4.70
2023-03-02T00:46:25.959Z,4.65
2023-03-02T00:48:53.000Z,4.59
2023-03-02T00:51:20.062Z,4.55
2023-03-02T00:53:46.903Z,4.53
2023-03-02T00:56:13.941Z,4.50
2023-03-02T00:58:40.719Z,4.45
2023-03-02T01:01:13.585Z,4.40
2023-03-02T01:03:40.458Z,4.36
2023-03-02T01:06:19.348Z,4.32
2023-03-02T01:08:46.437Z,4.28
2023-03-02T01:11:16.884Z,4.27
2023-03-02T01:13:44.865Z,4.24
2023-03-02T01:16:12.062Z,4.24
2023-03-02T01:18:39.057Z,4.22
2023-03-02T01:21:12.314Z,4.19
2023-03-02T01:23:39.046Z,4.18
2023-03-02T01:26:06.140Z,4.18
2023-03-02T01:28:32.893Z,4.17
2023-03-02T01:31:02.499Z,4.16
2023-03-02T01:33:29.323Z,4.16
2023-03-02T01:35:56.142Z,4.12
2023-03-02T01:38:22.995Z,4.10
2023-03-02T01:40:49.744Z,4.09
2023-03-02T01:43:17.062Z,4.06
2023-03-02T01:45:48.901Z,4.04
2023-03-02T01:48:23.556Z,4.02
2023-03-02T01:50:50.962Z,4.00
2023-03-02T01:53:17.939Z,3.98
2023-03-02T01:55:46.056Z,3.96
2023-03-02T01:58:16.626Z,3.97
2023-03-02T02:00:44.796Z,3.92
2023-03-02T02:03:21.027Z,3.92
2023-03-02T02:06:10.421Z,3.89
2023-03-02T02:08:38.727Z,3.86
2023-03-02T02:11:06.613Z,3.84
2023-03-02T02:13:33.475Z,3.84
2023-03-02T02:16:00.615Z,3.85
2023-03-02T02:18:27.606Z,3.83
2023-03-02T02:20:55.890Z,3.79
2023-03-02T02:23:28.772Z,3.79
2023-03-02T02:25:55.502Z,3.74
2023-03-02T02:28:43.124Z,3.71
2023-03-02T02:31:22.840Z,3.67
2023-03-02T02:34:04.121Z,3.65
2023-03-02T02:36:38.541Z,3.64
2023-03-02T02:39:15.108Z,3.62
2023-03-02T02:41:45.986Z,3.58
2023-03-02T02:44:18.581Z,3.56
2023-03-02T02:46:46.173Z,3.52
2023-03-02T02:49:37.201Z,3.49
2023-03-02T02:52:06.076Z,3.45
2023-03-02T02:54:36.953Z,3.41
2023-03-02T02:57:05.430Z,3.38
2023-03-02T02:59:37.989Z,3.35
2023-03-02T03:02:05.879Z,3.32
2023-03-02T03:04:33.065Z,3.30
2023-03-02T03:07:04.808Z,3.29
2023-03-02T03:09:32.865Z,3.27
2023-03-02T03:12:16.010Z,3.26
2023-03-02T03:14:45.077Z,3.25
2023-03-02T03:17:13.785Z,3.23
2023-03-02T03:19:44.772Z,3.22
2023-03-02T03:22:14.705Z,3.18
2023-03-02T03:24:44.431Z,3.17
2023-03-02T03:27:15.282Z,3.14
2023-03-02T03:29:49.844Z,3.11
2023-03-02T03:32:16.940Z,3.10
2023-03-02T03:34:44.808Z,3.07
2023-03-02T03:37:16.040Z,3.05
2023-03-02T03:39:43.296Z,3.05
2023-03-02T03:42:10.566Z,3.07
2023-03-02T03:44:37.983Z,3.07
2023-03-02T03:47:04.790Z,3.09
2023-03-02T03:49:31.514Z,3.09
2023-03-02T03:51:58.605Z,3.09
2023-03-02T03:54:25.412Z,3.10
2023-03-02T03:56:52.242Z,3.10
2023-03-02T03:59:23.741Z,3.08
2023-03-02T04:01:56.349Z,3.10
2023-03-02T04:04:34.894Z,3.07
2023-03-02T04:07:01.862Z,3.06
2023-03-02T04:09:32.102Z,3.05
2023-03-02T04:11:58.922Z,3.06
2023-03-02T04:14:25.973Z,3.06
2023-03-02T04:16:53.755Z,3.06
2023-03-02T04:19:21.667Z,3.07
2023-03-02T04:21:53.295Z,3.07
2023-03-02T04:24:22.990Z,3.07
2023-03-02T04:26:51.053Z,3.10
2023-03-02T04:29:19.062Z,3.10
2023-03-02T04:31:46.031Z,3.11
2023-03-02T04:34:12.810Z,3.11
2023-03-02T04:36:40.737Z,3.11
2023-03-02T04:39:08.880Z,3.10
2023-03-02T04:41:36.742Z,3.09
2023-03-02T04:44:03.800Z,3.09
2023-03-02T04:46:31.750Z,3.10
2023-03-02T04:48:58.718Z,3.08
2023-03-02T04:51:31.247Z,3.08
2023-03-02T04:54:04.460Z,3.06
2023-03-02T04:56:31.978Z,3.05
2023-03-02T04:58:59.838Z,3.04
2023-03-02T05:01:27.709Z,3.02
2023-03-02T05:03:54.694Z,3.02
2023-03-02T05:06:22.142Z,3.02
2023-03-02T05:08:49.056Z,3.00
2023-03-02T05:11:22.107Z,3.01
2023-03-02T05:13:59.846Z,2.97
2023-03-02T05:16:29.702Z,2.95
2023-03-02T05:18:56.896Z,2.98
2023-03-02T05:21:24.137Z,2.97
2023-03-02T05:23:51.620Z,2.96
2023-03-02T05:26:18.732Z,2.95
2023-03-02T05:28:46.598Z,2.94
2023-03-02T05:31:24.849Z,2.94
2023-03-02T05:33:51.650Z,2.92
2023-03-02T05:36:20.240Z,2.91
2023-03-02T05:38:47.940Z,2.90
2023-03-02T05:41:14.879Z,2.89
2023-03-02T05:43:41.649Z,2.89
2023-03-02T05:46:08.458Z,2.88
2023-03-02T05:48:35.176Z,2.88
2023-03-02T05:51:02.204Z,2.84
2023-03-02T05:53:29.030Z,2.84
2023-03-02T05:55:56.193Z,2.83
2023-03-02T05:58:23.017Z,2.82
2023-03-02T06:00:49.974Z,2.81
2023-03-02T06:03:17.305Z,2.80
2023-03-02T06:05:44.609Z,2.79
2023-03-02T06:08:11.355Z,2.77
2023-03-02T06:10:38.522Z,2.76
2023-03-02T06:13:05.336Z,2.78
2023-03-02T06:15:32.147Z,2.75
2023-03-02T06:17:59.150Z,2.76
2023-03-02T06:20:26.009Z,2.76
2023-03-02T06:22:52.843Z,2.75
2023-03-02T06:25:24.418Z,2.75
2023-03-02T06:27:53.600Z,2.75
2023-03-02T06:30:25.245Z,2.76
2023-03-02T06:32:52.423Z,2.80
2023-03-02T06:35:19.787Z,2.86
2023-03-02T06:37:46.879Z,2.95
2023-03-02T06:40:14.392Z,3.06
2023-03-02T06:42:42.997Z,3.23
2023-03-02T06:45:11.480Z,3.45
2023-03-02T06:47:38.925Z,3.71
2023-03-02T06:50:07.112Z,4.02
2023-03-02T06:52:35.033Z,4.38
2023-03-02T06:55:02.203Z,4.81
2023-03-02T06:57:33.734Z,5.26
2023-03-02T07:00:15.516Z,5.79
2023-03-02T07:02:43.742Z,6.37
2023-03-02T07:05:11.302Z,6.91
2023-03-02T07:07:38.732Z,7.44
2023-03-02T07:10:08.198Z,7.97
2023-03-02T07:12:35.283Z,8.46
2023-03-02T07:15:02.075Z,8.94
2023-03-02T07:17:28.783Z,9.38
2023-03-02T07:19:55.576Z,9.86
2023-03-02T07:22:22.574Z,10.26
2023-03-02T07:24:49.306Z,10.57
2023-03-02T07:27:16.047Z,10.81
2023-03-02T07:29:42.786Z,11.01
2023-03-02T07:32:12.332Z,11.21
2023-03-02T07:34:39.487Z,11.42
2023-03-02T07:37:06.273Z,11.63
2023-03-02T07:39:33.125Z,11.89
2023-03-02T07:42:01.372Z,12.15
2023-03-02T07:44:28.481Z,12.32
2023-03-02T07:46:55.318Z,12.45
2023-03-02T07:49:22.176Z,12.52
2023-03-02T07:51:48.975Z,12.64
2023-03-02T07:54:15.805Z,12.91
2023-03-02T07:56:42.644Z,13.32
2023-03-02T07:59:09.546Z,13.69
2023-03-02T08:01:36.344Z,14.03
2023-03-02T08:04:03.251Z,14.36
2023-03-02T08:06:30.192Z,14.72
2023-03-02T08:08:57.380Z,15.05
2023-03-02T08:11:24.108Z,15.33
2023-03-02T08:13:50.819Z,15.57
2023-03-02T08:16:17.890Z,15.81
2023-03-02T08:18:44.803Z,16.08
2023-03-02T08:21:19.178Z,16.42
2023-03-02T08:23:46.840Z,16.78
2023-03-02T08:26:17.299Z,17.17
2023-03-02T08:28:44.339Z,17.55
2023-03-02T08:31:12.545Z,17.86
2023-03-02T08:33:39.554Z,18.14
2023-03-02T08:36:12.780Z,18.47
2023-03-02T08:38:39.589Z,18.75
2023-03-02T08:41:10.846Z,19.02
2023-03-02T08:43:37.812Z,19.27
2023-03-02T08:46:05.306Z,19.50
2023-03-02T08:48:32.569Z,19.70
2023-03-02T08:51:05.833Z,19.83
2023-03-02T08:53:38.921Z,19.94
2023-03-02T08:56:18.967Z,20.01
2023-03-02T08:58:46.725Z,20.06
2023-03-02T09:01:22.453Z,20.09
2023-03-02T09:03:49.642Z,20.15
2023-03-02T09:06:16.820Z,20.23
2023-03-02T09:08:44.195Z,20.16
2023-03-02T09:11:11.281Z,19.99
2023-03-02T09:13:38.573Z,19.82
2023-03-02T09:16:08.364Z,19.71
2023-03-02T09:18:36.131Z,19.65
2023-03-02T09:21:03.450Z,19.71
2023-03-02T09:23:31.457Z,19.76
2023-03-02T09:25:58.844Z,19.83
2023-03-02T09:28:25.586Z,19.93
2023-03-02T09:30:56.897Z,20.05
2023-03-02T09:33:24.146Z,20.16
2023-03-02T09:35:51.305Z,20.26
2023-03-02T09:38:19.423Z,20.39
2023-03-02T09:41:19.194Z,20.58
2023-03-02T09:44:29.543Z,20.81
2023-03-02T09:47:34.830Z,20.93
2023-03-02T09:50:37.775Z,21.04
2023-03-02T09:53:28.889Z,21.10
2023-03-02T09:56:01.691Z,21.15
2023-03-02T09:58:35.899Z,21.14
2023-03-02T10:01:15.454Z,21.16
2023-03-02T10:03:58.660Z,21.23
2023-03-02T10:06:25.499Z,21.33
2023-03-02T10:08:52.337Z,21.41
2023-03-02T10:11:50.383Z,21.47
2023-03-02T10:14:39.121Z,21.32
2023-03-02T10:17:33.261Z,21.11
2023-03-02T10:20:17.103Z,20.89
2023-03-02T10:22:52.865Z,20.83
2023-03-02T10:25:33.990Z,20.83
2023-03-02T10:28:19.112Z,20.91
2023-03-02T10:30:53.415Z,20.86
2023-03-02T10:33:22.080Z,20.67
2023-03-02T10:35:53.055Z,20.48
2023-03-02T10:38:24.508Z,20.28
2023-03-02T10:41:06.464Z,20.09
2023-03-02T10:43:44.411Z,19.96
2023-03-02T10:46:13.989Z,19.92
2023-03-02T10:49:01.086Z,19.88
2023-03-02T10:51:35.437Z,19.84
2023-03-02T10:54:07.425Z,19.95
2023-03-02T10:56:34.864Z,20.09
2023-03-02T10:59:12.934Z,20.19
2023-03-02T11:01:39.673Z,20.29
2023-03-02T11:04:15.277Z,20.33
2023-03-02T11:06:42.097Z,20.24
2023-03-02T11:09:14.432Z,20.20
2023-03-02T11:11:56.943Z,20.18
2023-03-02T11:14:23.864Z,20.21
2023-03-02T11:16:53.085Z,20.22
2023-03-02T11:19:34.629Z,20.21
2023-03-02T11:22:37.127Z,20.10
2023-03-02T11:25:12.821Z,19.94
2023-03-02T11:27:44.761Z,19.80
2023-03-02T11:30:22.693Z,19.68
2023-03-02T11:33:04.018Z,19.56
2023-03-02T11:35:38.968Z,19.42
2023-03-02T11:38:38.317Z,19.26
2023-03-02T11:41:29.658Z,19.18
2023-03-02T11:44:01.849Z,19.03
2023-03-02T11:46:32.564Z,18.87
2023-03-02T11:49:06.185Z,18.67
2023-03-02T11:51:50.046Z,18.45
2023-03-02T11:54:52.753Z,18.18
2023-03-02T11:57:33.842Z,18.01
2023-03-02T12:00:01.961Z,17.85
2023-03-02T12:02:28.834Z,17.69
2023-03-02T12:05:23.196Z,17.47
2023-03-02T12:08:20.590Z,17.18
2023-03-02T12:11:03.623Z,16.99
2023-03-02T12:13:40.385Z,16.88
2023-03-02T12:16:32.739Z,16.74
2023-03-02T12:19:12.057Z,16.65
2023-03-02T12:22:06.916Z,16.51
2023-03-02T12:24:37.905Z,16.37
2023-03-02T12:27:13.428Z,16.20
2023-03-02T12:29:44.868Z,16.06
2023-03-02T12:32:24.553Z,15.90
2023-03-02T12:35:14.426Z,15.71
2023-03-02T12:37:52.345Z,15.58
2023-03-02T12:40:55.781Z,15.45
2023-03-02T12:43:37.772Z,15.33
2023-03-02T12:46:29.101Z,15.22
2023-03-02T12:49:45.613Z,15.14
2023-03-02T12:52:35.608Z,15.07
2023-03-02T12:55:20.728Z,15.40
2023-03-02T12:57:58.273Z,15.32
2023-03-02T13:00:30.133Z,15.16
2023-03-02T13:03:01.955Z,15.07
2023-03-02T13:05:33.146Z,15.02
2023-03-02T13:08:01.802Z,14.95
2023-03-02T13:10:41.982Z,14.91
2023-03-02T13:13:43.825Z,14.82
2023-03-02T13:16:33.436Z,14.77
2023-03-02T13:19:15.114Z,14.70
2023-03-02T13:21:42.119Z,14.67
2023-03-02T13:24:50.502Z,14.58
2023-03-02T13:27:23.404Z,14.58
2023-03-02T13:29:52.712Z,14.60
2023-03-02T13:32:26.775Z,14.63
2023-03-02T13:34:58.571Z,14.66
2023-03-02T13:37:38.783Z,14.65
2023-03-02T13:40:27.621Z,14.60
2023-03-02T13:42:54.994Z,14.58
2023-03-02T13:45:33.160Z,14.50
2023-03-02T13:48:17.114Z,14.44
2023-03-02T13:50:58.865Z,14.37
2023-03-02T13:53:30.023Z,14.33
2023-03-02T13:56:00.169Z,14.28
2023-03-02T13:58:29.662Z,14.20
2023-03-02T14:00:56.796Z,14.16
2023-03-02T14:03:30.834Z,14.13
2023-03-02T14:05:59.469Z,14.07
2023-03-02T14:08:26.413Z,14.05
2023-03-02T14:10:59.864Z,14.00
2023-03-02T14:13:37.586Z,13.95
2023-03-02T14:16:04.814Z,13.89
2023-03-02T14:18:47.086Z,13.84
2023-03-02T14:21:17.754Z,13.81
2023-03-02T14:23:46.029Z,13.81
2023-03-02T14:26:34.693Z,13.79
2023-03-02T14:29:28.865Z,13.78
2023-03-02T14:31:57.646Z,13.72
2023-03-02T14:34:24.442Z,13.71
2023-03-02T14:36:56.160Z,13.66
2023-03-02T14:39:31.895Z,13.63
2023-03-02T14:41:58.988Z,13.60
2023-03-02T14:44:26.165Z,13.57
2023-03-02T14:46:53.116Z,13.54
2023-03-02T14:49:21.103Z,13.52
2023-03-02T14:52:06.394Z,13.48
2023-03-02T14:54:43.936Z,13.43
2023-03-02T14:57:25.194Z,13.37
2023-03-02T14:59:53.815Z,13.31
2023-03-02T15:02:25.978Z,13.27
2023-03-02T15:04:56.842Z,13.22
2023-03-02T15:07:27.207Z,13.23
2023-03-02T15:09:56.473Z,13.18
2023-03-02T15:12:23.961Z,13.16
2023-03-02T15:14:51.303Z,13.15
2023-03-02T15:17:18.184Z,13.13
2023-03-02T15:19:44.884Z,13.13
2023-03-02T15:22:13.091Z,13.12
2023-03-02T15:24:39.914Z,13.10
2023-03-02T15:27:06.684Z,13.09
2023-03-02T15:29:34.040Z,13.09
2023-03-02T15:32:00.962Z,13.06
2023-03-02T15:34:27.820Z,13.04
2023-03-02T15:36:54.565Z,13.04
2023-03-02T15:39:21.274Z,13.02
2023-03-02T15:41:48.059Z,12.97
2023-03-02T15:44:22.933Z,12.95
2023-03-02T15:47:00.450Z,12.92
2023-03-02T15:49:29.270Z,12.90
2023-03-02T15:51:57.793Z,12.90
2023-03-02T15:54:26.379Z,12.89
2023-03-02T15:56:53.528Z,12.88
2023-03-02T15:59:23.850Z,12.88
2023-03-02T16:01:50.998Z,12.83
2023-03-02T16:04:18.674Z,12.81
2023-03-02T16:07:01.663Z,12.79
2023-03-02T16:09:28.955Z,12.74
2023-03-02T16:11:56.106Z,12.71
2023-03-02T16:14:23.071Z,12.66
2023-03-02T16:16:50.425Z,12.63
2023-03-02T16:19:19.404Z,12.57
2023-03-02T16:21:51.424Z,12.52
2023-03-02T16:24:18.271Z,12.47
2023-03-02T16:26:45.456Z,12.40
2023-03-02T16:29:14.985Z,12.36
2023-03-02T16:31:42.311Z,12.31
2023-03-02T16:34:10.098Z,12.26
2023-03-02T16:36:40.414Z,12.20
2023-03-02T16:39:09.299Z,12.18
2023-03-02T16:41:38.525Z,12.13
2023-03-02T16:44:06.077Z,12.11
2023-03-02T16:46:36.881Z,12.08
2023-03-02T16:49:05.301Z,12.06
2023-03-02T16:51:32.610Z,12.04
2023-03-02T16:53:59.391Z,12.02
2023-03-02T16:56:26.334Z,12.01
2023-03-02T16:58:53.258Z,11.99
2023-03-02T17:01:21.774Z,11.97
2023-03-02T17:03:50.869Z,11.94
2023-03-02T17:06:21.056Z,11.91
2023-03-02T17:08:47.952Z,11.86
2023-03-02T17:11:15.077Z,11.87
2023-03-02T17:13:42.174Z,11.84
2023-03-02T17:16:09.201Z,11.79
2023-03-02T17:18:36.170Z,11.77
2023-03-02T17:21:05.466Z,11.72
2023-03-02T17:23:33.014Z,11.67
2023-03-02T17:25:59.871Z,11.61
2023-03-02T17:28:26.586Z,11.55
2023-03-02T17:30:53.343Z,11.49
2023-03-02T17:33:20.216Z,11.43
2023-03-02T17:35:47.175Z,11.32
2023-03-02T17:38:15.713Z,11.23
2023-03-02T17:40:43.372Z,11.12
2023-03-02T17:43:11.427Z,11.02
2023-03-02T17:45:38.720Z,10.93
2023-03-02T17:48:06.057Z,10.83
2023-03-02T17:50:32.843Z,10.74
2023-03-02T17:52:59.801Z,10.66
2023-03-02T17:55:26.834Z,10.54
2023-03-02T17:57:53.800Z,10.47
2023-03-02T18:00:22.674Z,10.39
2023-03-02T18:02:50.621Z,10.31
2023-03-02T18:05:18.050Z,10.23
2023-03-02T18:07:45.116Z,10.19
2023-03-02T18:10:13.144Z,10.11
2023-03-02T18:12:40.079Z,10.05
2023-03-02T18:15:07.948Z,9.97
2023-03-02T18:17:34.690Z,9.92
2023-03-02T18:20:01.512Z,9.86
2023-03-02T18:22:28.339Z,9.79
2023-03-02T18:24:55.119Z,9.73
2023-03-02T18:27:21.995Z,9.68
2023-03-02T18:29:48.845Z,9.64
2023-03-02T18:32:15.708Z,9.59
2023-03-02T18:34:42.548Z,9.55
2023-03-02T18:37:09.670Z,9.49
2023-03-02T18:39:37.817Z,9.47
2023-03-02T18:42:06.539Z,9.41
2023-03-02T18:44:33.984Z,9.41
2023-03-02T18:47:01.953Z,9.39
2023-03-02T18:49:29.507Z,9.38
2023-03-02T18:51:56.724Z,9.39
2023-03-02T18:54:24.347Z,9.39
2023-03-02T18:56:51.892Z,9.38
2023-03-02T18:59:19.098Z,9.38
2023-03-02T19:01:46.416Z,9.38
2023-03-02T19:04:14.528Z,9.39
2023-03-02T19:06:46.094Z,9.35
2023-03-02T19:09:15.827Z,9.36
2023-03-02T19:11:45.429Z,9.36
2023-03-02T19:14:12.299Z,9.31
2023-03-02T19:16:40.159Z,9.30
2023-03-02T19:19:09.065Z,9.29
2023-03-02T19:21:35.957Z,9.27
2023-03-02T19:24:02.910Z,9.28
2023-03-02T19:26:30.070Z,9.24
2023-03-02T19:28:57.096Z,9.24
2023-03-02T19:31:28.680Z,9.21
2023-03-02T19:33:55.858Z,9.19
2023-03-02T19:36:23.373Z,9.14
2023-03-02T19:38:50.255Z,9.15
2023-03-02T19:41:19.942Z,9.11
2023-03-02T19:43:50.200Z,9.08
2023-03-02T19:46:18.231Z,9.08
2023-03-02T19:48:45.110Z,9.07
2023-03-02T19:51:13.784Z,9.03
2023-03-02T19:53:42.284Z,9.01
2023-03-02T19:56:13.026Z,8.99
2023-03-02T19:58:49.581Z,8.93
2023-03-02T20:01:24.923Z,8.91
2023-03-02T20:03:55.963Z,8.84
2023-03-02T20:06:31.579Z,8.84
2023-03-02T20:09:01.576Z,8.78
2023-03-02T20:11:30.727Z,8.74
2023-03-02T20:14:02.506Z,8.72
2023-03-02T20:16:32.419Z,8.69
2023-03-02T20:19:02.007Z,8.65
2023-03-02T20:21:36.461Z,8.58
2023-03-02T20:24:04.880Z,8.53
2023-03-02T20:26:34.724Z,8.50
2023-03-02T20:29:04.619Z,8.44
2023-03-02T20:31:33.594Z,8.39
2023-03-02T20:34:05.893Z,8.38
2023-03-02T20:36:36.711Z,8.28
2023-03-02T20:39:11.330Z,8.23
2023-03-02T20:41:38.427Z,8.14
2023-03-02T20:44:06.664Z,8.06
2023-03-02T20:46:44.783Z,7.98
2023-03-02T20:49:15.976Z,7.93
2023-03-02T20:51:49.287Z,7.83
2023-03-02T20:54:16.990Z,7.78
2023-03-02T20:56:45.885Z,7.72
2023-03-02T20:59:16.320Z,7.64
2023-03-02T21:01:43.689Z,7.58
2023-03-02T21:04:10.914Z,7.53
2023-03-02T21:06:38.546Z,7.48
2023-03-02T21:09:09.030Z,7.40
2023-03-02T21:11:37.114Z,7.36
2023-03-02T21:14:05.069Z,7.29
2023-03-02T21:16:37.084Z,7.28
2023-03-02T21:19:09.506Z,7.19
2023-03-02T21:21:42.451Z,7.16
2023-03-02T21:24:18.311Z,7.12
2023-03-02T21:26:48.256Z,7.11
2023-03-02T21:29:19.754Z,7.11
2023-03-02T21:31:47.855Z,7.06
2023-03-02T21:34:18.926Z,7.06
2023-03-02T21:36:46.924Z,7.01
2023-03-02T21:39:14.479Z,6.96
2023-03-02T21:41:41.707Z,6.94
2023-03-02T21:44:08.983Z,6.91
2023-03-02T21:46:39.455Z,6.90
2023-03-02T21:49:06.768Z,6.83
2023-03-02T21:51:34.749Z,6.83
2023-03-02T21:54:01.615Z,6.80
2023-03-02T21:56:28.738Z,6.81
2023-03-02T21:58:57.070Z,6.81
2023-03-02T22:01:26.338Z,6.80
2023-03-02T22:03:53.637Z,6.79
2023-03-02T22:06:25.370Z,6.75
2023-03-02T22:08:52.455Z,6.78
2023-03-02T22:11:31.862Z,6.76
2023-03-02T22:14:03.296Z,6.72
2023-03-02T22:16:40.220Z,6.70
2023-03-02T22:19:28.248Z,6.68
2023-03-02T22:22:01.123Z,6.65
2023-03-02T22:24:32.080Z,6.59
2023-03-02T22:27:18.688Z,6.59
2023-03-02T22:29:47.756Z,6.55
2023-03-02T22:32:38.220Z,6.52
2023-03-02T22:35:25.294Z,6.44
2023-03-02T22:38:11.645Z,6.40
2023-03-02T22:40:38.484Z,6.36
2023-03-02T22:43:26.690Z,6.33
2023-03-02T22:45:58.161Z,6.29
2023-03-02T22:48:28.517Z,6.27
2023-03-02T22:50:55.241Z,6.23
2023-03-02T22:53:33.062Z,6.23
2023-03-02T22:56:21.180Z,6.18
2023-03-02T22:58:52.022Z,6.13
2023-03-02T23:01:29.459Z,6.11
2023-03-02T23:04:08.191Z,6.08
2023-03-02T23:06:46.445Z,6.04
2023-03-02T23:09:17.788Z,6.01
2023-03-02T23:11:45.414Z,5.97
2023-03-02T23:14:38.999Z,5.96
2023-03-02T23:17:14.473Z,5.90
2023-03-02T23:19:41.354Z,5.88
2023-03-02T23:22:09.469Z,5.86
2023-03-02T23:24:36.779Z,5.84
2023-03-02T23:27:04.010Z,5.79
2023-03-02T23:29:31.257Z,5.77
2023-03-02T23:31:58.123Z,5.75
2023-03-02T23:34:25.303Z,5.73
2023-03-02T23:36:52.122Z,5.72
2023-03-02T23:39:18.948Z,5.68
2023-03-02T23:41:45.792Z,5.64
2023-03-02T23:44:12.578Z,5.60
2023-03-02T23:46:39.416Z,5.57
2023-03-02T23:49:06.271Z,5.55
2023-03-02T23:51:33.169Z,5.52
2023-03-02T23:54:00.033Z,5.49
2023-03-02T23:56:26.854Z,5.46
2023-03-02T23:58:54.775Z,5.44
